Time,TemperatureF,DewpointF,PressureIn,WindDirection,WindDirectionDegrees,WindSpeedMPH,WindSpeedGustMPH,Humidity,HourlyPrecipIn,Conditions,Clouds,dailyrainin,SoftwareType,DateUTC
2013-01-05 00:02:00,46.3,39.5,30.20,SW,232,0.0,0.0,77,0.00,,,0.00,WeatherTracker,2013-01-05 08:02:00,
2013-01-05 00:07:00,46.3,39.8,30.20,SSW,201,0.0,0.0,78,0.00,,,0.00,WeatherTracker,2013-01-05 08:07:00,
2013-01-05 00:12:00,46.2,39.7,30.20,SSW,201,0.0,0.0,78,0.00,,,0.00,WeatherTracker,2013-01-05 08:12:00,
2013-01-05 00:17:00,46.2,39.7,30.20,SSW,202,0.0,0.0,78,0.00,,,0.00,WeatherTracker,2013-01-05 08:17:00,
2013-01-05 00:22:00,46.0,39.5,30.20,SSW,201,0.0,0.0,78,0.00,,,0.00,WeatherTracker,2013-01-05 08:22:00,
2013-01-05 00:27:00,45.8,39.7,30.20,SSW,201,0.0,0.0,79,0.00,,,0.00,WeatherTracker,2013-01-05 08:27:00,
2013-01-05 00:32:00,45.6,39.8,30.20,SSW,201,0.0,0.0,80,0.00,,,0.00,WeatherTracker,2013-01-05 08:32:00,
2013-01-05 00:37:00,45.6,39.8,30.20,SSW,202,0.0,0.0,80,0.00,,,0.00,WeatherTracker,2013-01-05 08:37:00,
2013-01-05 00:42:00,45.6,39.8,30.20,SSW,201,0.0,0.0,80,0.00,,,0.00,WeatherTracker,2013-01-05 08:42:00,
2013-01-05 00:47:00,45.6,39.8,30.20,SW,235,0.0,0.0,80,0.00,,,0.00,WeatherTracker,2013-01-05 08:47:00,
2013-01-05 00:52:00,45.6,39.8,30.20,SW,235,0.0,0.0,80,0.00,,,0.00,WeatherTracker,2013-01-05 08:52:00,
2013-01-05 00:57:00,45.7,40.2,30.20,SW,235,0.0,0.0,81,0.00,,,0.00,WeatherTracker,2013-01-05 08:57:00,
2013-01-05 01:02:00,45.7,40.2,30.20,SW,235,0.0,0.0,81,0.00,,,0.00,WeatherTracker,2013-01-05 09:02:00,
2013-01-05 01:07:00,45.7,39.9,30.20,WSW,238,0.0,0.0,80,0.00,,,0.00,WeatherTracker,2013-01-05 09:07:00,
2013-01-05 01:12:00,45.6,40.1,30.20,WSW,242,0.0,0.0,81,0.00,,,0.00,WeatherTracker,2013-01-05 09:12:00,
2013-01-05 01:17:00,45.6,40.1,30.20,WSW,250,0.0,0.0,81,0.00,,,0.00,WeatherTracker,2013-01-05 09:17:00,
2013-01-05 01:22:00,45.5,40.0,30.20,WSW,250,0.0,0.0,81,0.00,,,0.00,WeatherTracker,2013-01-05 09:22:00,
2013-01-05 01:27:00,45.4,39.9,30.20,WSW,250,0.0,0.0,81,0.00,,,0.00,WeatherTracker,2013-01-05 09:27:00,
2013-01-05 01:32:00,45.3,39.8,30.20,WSW,250,0.0,0.0,81,0.00,,,0.00,WeatherTracker,2013-01-05 09:32:00,
2013-01-05 01:37:00,45.2,39.7,30.20,WSW,250,0.0,0.0,81,0.00,,,0.00,WeatherTracker,2013-01-05 09:37:00,
2013-01-05 01:42:00,45.1,39.9,30.20,WSW,250,0.0,0.0,82,0.00,,,0.00,WeatherTracker,2013-01-05 09:42:00,
2013-01-05 01:47:00,45.0,39.8,30.20,WSW,250,0.0,0.0,82,0.00,,,0.00,WeatherTracker,2013-01-05 09:47:00,
2013-01-05 01:53:00,44.9,39.7,30.20,WSW,250,0.0,0.0,82,0.00,,,0.00,WeatherTracker,2013-01-05 09:53:00,
2013-01-05 01:58:00,44.8,39.6,30.21,WSW,250,0.0,0.0,82,0.00,,,0.00,WeatherTracker,2013-01-05 09:58:00,
2013-01-05 02:03:00,44.8,40.0,30.21,WSW,249,0.0,0.0,83,0.00,,,0.00,WeatherTracker,2013-01-05 10:03:00,
2013-01-05 02:08:00,44.7,39.5,30.21,WSW,249,0.0,0.0,82,0.00,,,0.00,WeatherTracker,2013-01-05 10:08:00,
2013-01-05 02:13:00,44.5,39.7,30.21,WSW,238,0.0,0.0,83,0.00,,,0.00,WeatherTracker,2013-01-05 10:13:00,
2013-01-05 02:18:00,44.5,39.7,30.21,WSW,239,0.0,0.0,83,0.00,,,0.00,WeatherTracker,2013-01-05 10:18:00,
2013-01-05 02:23:00,44.5,39.7,30.20,WSW,239,0.0,0.0,83,0.00,,,0.00,WeatherTracker,2013-01-05 10:23:00,
2013-01-05 02:28:00,44.7,39.9,30.20,WSW,238,0.0,0.0,83,0.00,,,0.00,WeatherTracker,2013-01-05 10:28:00,
2013-01-05 02:33:00,44.7,39.9,30.20,WSW,239,0.0,0.0,83,0.00,,,0.00,WeatherTracker,2013-01-05 10:33:00,
2013-01-05 02:38:00,44.8,40.0,30.21,WSW,239,0.0,0.0,83,0.00,,,0.00,WeatherTracker,2013-01-05 10:38:00,
2013-01-05 02:43:00,44.7,39.9,30.21,WSW,242,0.0,0.0,83,0.00,,,0.00,WeatherTracker,2013-01-05 10:43:00,
2013-01-05 02:48:00,44.7,39.9,30.21,SW,228,0.0,0.0,83,0.00,,,0.00,WeatherTracker,2013-01-05 10:48:00,
2013-01-05 02:53:00,44.6,39.8,30.21,SW,231,0.0,0.0,83,0.00,,,0.00,WeatherTracker,2013-01-05 10:53:00,
2013-01-05 02:58:00,44.7,40.2,30.22,WSW,256,0.0,0.0,84,0.00,,,0.00,WeatherTracker,2013-01-05 10:58:00,
2013-01-05 03:03:00,44.7,39.9,30.22,WSW,256,0.0,0.0,83,0.00,,,0.00,WeatherTracker,2013-01-05 11:03:00,
2013-01-05 03:08:00,44.6,39.8,30.22,WSW,256,0.0,0.0,83,0.00,,,0.00,WeatherTracker,2013-01-05 11:08:00,
2013-01-05 03:13:00,44.4,39.9,30.22,WSW,256,0.0,0.0,84,0.00,,,0.00,WeatherTracker,2013-01-05 11:13:00,
2013-01-05 03:18:00,44.4,39.9,30.22,WSW,256,0.0,0.0,84,0.00,,,0.00,WeatherTracker,2013-01-05 11:18:00,
2013-01-05 03:23:00,44.3,39.8,30.22,WSW,256,0.0,0.0,84,0.00,,,0.00,WeatherTracker,2013-01-05 11:23:00,
2013-01-05 03:28:00,44.0,39.5,30.21,WSW,256,0.0,0.0,84,0.00,,,0.00,WeatherTracker,2013-01-05 11:28:00,
2013-01-05 03:33:00,44.0,39.8,30.21,WSW,256,0.0,0.0,85,0.00,,,0.00,WeatherTracker,2013-01-05 11:33:00,
2013-01-05 03:38:00,43.9,39.4,30.21,WSW,256,0.0,0.0,84,0.00,,,0.00,WeatherTracker,2013-01-05 11:38:00,
2013-01-05 03:43:00,43.7,39.5,30.21,WSW,256,0.0,0.0,85,0.00,,,0.00,WeatherTracker,2013-01-05 11:43:00,
2013-01-05 03:48:00,43.5,39.3,30.21,WSW,256,0.0,0.0,85,0.00,,,0.00,WeatherTracker,2013-01-05 11:48:00,
2013-01-05 03:53:00,43.6,39.7,30.21,WSW,256,0.0,0.0,86,0.00,,,0.00,WeatherTracker,2013-01-05 11:53:00,
2013-01-05 03:58:00,43.7,39.5,30.21,WSW,256,0.0,0.0,85,0.00,,,0.00,WeatherTracker,2013-01-05 11:58:00,
2013-01-05 04:04:00,43.5,39.3,30.21,WSW,256,0.0,0.0,85,0.00,,,0.00,WeatherTracker,2013-01-05 12:04:00,
2013-01-05 04:09:00,43.5,39.6,30.21,WSW,256,0.0,0.0,86,0.00,,,0.00,WeatherTracker,2013-01-05 12:09:00,
2013-01-05 04:14:00,44.0,40.7,30.21,WSW,255,0.0,0.0,88,0.00,,,0.00,WeatherTracker,2013-01-05 12:14:00,
2013-01-05 04:19:00,44.7,41.1,30.21,WSW,252,0.0,0.0,87,0.00,,,0.00,WeatherTracker,2013-01-05 12:19:00,
2013-01-05 04:24:00,44.1,39.9,30.21,SW,235,0.0,0.0,85,0.00,,,0.00,WeatherTracker,2013-01-05 12:24:00,
2013-01-05 04:29:00,43.9,40.0,30.21,SW,232,0.0,0.0,86,0.00,,,0.00,WeatherTracker,2013-01-05 12:29:00,
2013-01-05 04:34:00,43.8,39.9,30.21,SW,224,0.0,0.0,86,0.00,,,0.00,WeatherTracker,2013-01-05 12:34:00,
2013-01-05 04:39:00,43.9,40.0,30.21,SW,224,0.0,0.0,86,0.00,,,0.00,WeatherTracker,2013-01-05 12:39:00,
2013-01-05 04:44:00,43.9,40.0,30.21,SW,224,0.0,0.0,86,0.00,,,0.00,WeatherTracker,2013-01-05 12:44:00,
2013-01-05 04:49:00,44.0,40.1,30.22,SW,224,0.0,0.0,86,0.00,,,0.00,WeatherTracker,2013-01-05 12:49:00,
2013-01-05 04:54:00,44.0,40.1,30.22,SW,224,0.0,0.0,86,0.00,,,0.00,WeatherTracker,2013-01-05 12:54:00,
2013-01-05 04:59:00,43.9,39.7,30.21,SW,224,0.0,0.0,85,0.00,,,0.00,WeatherTracker,2013-01-05 12:59:00,
2013-01-05 05:04:00,43.9,40.0,30.22,SW,224,0.0,0.0,86,0.00,,,0.00,WeatherTracker,2013-01-05 13:04:00,
2013-01-05 05:09:00,43.9,40.0,30.22,SW,219,0.0,0.0,86,0.00,,,0.00,WeatherTracker,2013-01-05 13:09:00,
2013-01-05 05:14:00,44.2,40.3,30.22,SW,219,0.0,0.0,86,0.00,,,0.00,WeatherTracker,2013-01-05 13:14:00,
2013-01-05 05:19:00,44.4,40.5,30.22,SW,219,0.0,0.0,86,0.00,,,0.00,WeatherTracker,2013-01-05 13:19:00,
2013-01-05 05:24:00,44.5,40.6,30.22,SW,219,0.0,0.0,86,0.00,,,0.00,WeatherTracker,2013-01-05 13:24:00,
2013-01-05 05:29:00,44.7,40.8,30.22,SE,144,0.0,0.0,86,0.00,,,0.00,WeatherTracker,2013-01-05 13:29:00,
2013-01-05 05:34:00,45.2,41.6,30.22,SE,145,0.0,0.0,87,0.00,,,0.00,WeatherTracker,2013-01-05 13:34:00,
2013-01-05 05:39:00,45.2,41.3,30.22,SSE,158,1.0,0.0,86,0.00,,,0.00,WeatherTracker,2013-01-05 13:39:00,
2013-01-05 05:44:00,45.5,41.6,30.22,SE,138,0.0,0.0,86,0.00,,,0.00,WeatherTracker,2013-01-05 13:44:00,
2013-01-05 05:49:00,45.6,41.7,30.22,SE,139,0.0,0.0,86,0.00,,,0.00,WeatherTracker,2013-01-05 13:49:00,
2013-01-05 05:54:00,45.7,41.8,30.22,South,169,1.0,0.0,86,0.00,,,0.00,WeatherTracker,2013-01-05 13:54:00,
2013-01-05 05:59:00,45.8,41.9,30.22,SSE,149,1.0,0.0,86,0.00,,,0.00,WeatherTracker,2013-01-05 13:59:00,
2013-01-05 06:04:00,45.9,42.0,30.22,SSE,160,0.0,0.0,86,0.00,,,0.00,WeatherTracker,2013-01-05 14:04:00,
2013-01-05 06:09:00,46.0,42.1,30.23,ESE,114,0.0,0.0,86,0.00,,,0.00,WeatherTracker,2013-01-05 14:09:00,
2013-01-05 06:14:00,46.4,43.0,30.23,SE,130,1.0,0.0,88,0.00,,,0.00,WeatherTracker,2013-01-05 14:14:00,
2013-01-05 06:19:00,46.4,42.4,30.23,ESE,116,1.0,0.0,86,0.00,,,0.00,WeatherTracker,2013-01-05 14:19:00,
2013-01-05 06:25:00,46.5,42.8,30.23,SE,124,1.0,0.0,87,0.00,,,0.00,WeatherTracker,2013-01-05 14:25:00,
2013-01-05 06:30:00,46.5,42.8,30.23,ESE,105,1.0,0.0,87,0.00,,,0.00,WeatherTracker,2013-01-05 14:30:00,
2013-01-05 06:35:00,46.4,42.7,30.23,ESE,120,1.0,0.0,87,0.00,,,0.00,WeatherTracker,2013-01-05 14:35:00,
2013-01-05 06:40:00,46.5,42.8,30.23,SSE,151,0.0,0.0,87,0.00,,,0.00,WeatherTracker,2013-01-05 14:40:00,
2013-01-05 06:45:00,46.5,42.8,30.23,SE,141,0.0,0.0,87,0.00,,,0.00,WeatherTracker,2013-01-05 14:45:00,
2013-01-05 06:50:00,46.5,42.8,30.22,ESE,107,0.0,0.0,87,0.00,,,0.00,WeatherTracker,2013-01-05 14:50:00,
2013-01-05 06:55:00,46.6,42.9,30.23,SSE,167,0.0,0.0,87,0.00,,,0.00,WeatherTracker,2013-01-05 14:55:00,
2013-01-05 07:00:00,46.6,42.9,30.23,SSE,159,1.0,0.0,87,0.00,,,0.00,WeatherTracker,2013-01-05 15:00:00,
2013-01-05 07:05:00,46.6,42.6,30.23,SSE,158,0.0,0.0,86,0.00,,,0.00,WeatherTracker,2013-01-05 15:05:00,
2013-01-05 07:10:00,46.7,42.7,30.23,ESE,114,3.0,0.0,86,0.00,,,0.00,WeatherTracker,2013-01-05 15:10:00,
2013-01-05 07:15:00,46.7,42.4,30.23,East,84,0.0,0.0,85,0.00,,,0.00,WeatherTracker,2013-01-05 15:15:00,
2013-01-05 07:20:00,46.8,42.8,30.23,SE,138,0.0,0.0,86,0.00,,,0.00,WeatherTracker,2013-01-05 15:20:00,
2013-01-05 07:25:00,46.9,42.6,30.23,ESE,107,2.0,0.0,85,0.00,,,0.00,WeatherTracker,2013-01-05 15:25:00,
2013-01-05 07:30:00,46.8,42.5,30.23,SE,130,0.0,0.0,85,0.00,,,0.00,WeatherTracker,2013-01-05 15:30:00,
2013-01-05 07:35:00,46.7,42.4,30.23,ESE,108,0.0,0.0,85,0.00,,,0.00,WeatherTracker,2013-01-05 15:35:00,
2013-01-05 07:40:00,46.8,42.8,30.23,ENE,75,1.0,0.0,86,0.00,,,0.00,WeatherTracker,2013-01-05 15:40:00,
2013-01-05 07:45:00,46.7,42.7,30.23,ESE,119,0.0,0.0,86,0.00,,,0.00,WeatherTracker,2013-01-05 15:45:00,
2013-01-05 07:50:00,46.7,43.0,30.24,ESE,108,1.0,0.0,87,0.00,,,0.00,WeatherTracker,2013-01-05 15:50:00,
2013-01-05 07:55:00,46.7,43.0,30.23,SE,126,1.0,0.0,87,0.00,,,0.00,WeatherTracker,2013-01-05 15:55:00,
2013-01-05 08:00:00,46.7,43.0,30.24,ESE,115,1.0,0.0,87,0.00,,,0.00,WeatherTracker,2013-01-05 16:00:00,
2013-01-05 08:05:00,46.9,43.5,30.24,South,179,1.0,0.0,88,0.00,,,0.00,WeatherTracker,2013-01-05 16:05:00,
2013-01-05 08:10:00,47.1,43.4,30.24,SSE,165,0.0,0.0,87,0.00,,,0.00,WeatherTracker,2013-01-05 16:10:00,
2013-01-05 08:15:00,47.6,44.2,30.24,SSE,160,0.0,0.0,88,0.00,,,0.00,WeatherTracker,2013-01-05 16:15:00,
2013-01-05 08:21:00,47.5,43.8,30.24,SW,218,2.0,0.0,87,0.00,,,0.00,WeatherTracker,2013-01-05 16:21:00,
2013-01-05 08:26:00,47.4,43.7,30.24,ESE,113,1.0,0.0,87,0.00,,,0.00,WeatherTracker,2013-01-05 16:26:00,
2013-01-05 08:31:00,47.2,43.5,30.24,ESE,114,2.0,0.0,87,0.00,,,0.00,WeatherTracker,2013-01-05 16:31:00,
2013-01-05 08:36:00,47.2,43.5,30.24,SE,139,1.0,0.0,87,0.00,,,0.00,WeatherTracker,2013-01-05 16:36:00,
2013-01-05 08:41:00,47.3,43.9,30.24,SE,139,2.0,0.0,88,0.00,,,0.00,WeatherTracker,2013-01-05 16:41:00,
2013-01-05 08:46:00,47.4,44.0,30.24,ESE,121,3.0,0.0,88,0.00,,,0.00,WeatherTracker,2013-01-05 16:46:00,
2013-01-05 08:51:00,47.5,44.1,30.24,SE,137,1.0,0.0,88,0.00,,,0.00,WeatherTracker,2013-01-05 16:51:00,
2013-01-05 08:56:00,47.7,44.0,30.23,SE,129,4.0,0.0,87,0.00,,,0.00,WeatherTracker,2013-01-05 16:56:00,
2013-01-05 09:01:00,47.8,44.1,30.24,ESE,112,3.0,0.0,87,0.00,,,0.00,WeatherTracker,2013-01-05 17:01:00,
2013-01-05 09:06:00,48.0,44.3,30.23,East,91,0.0,0.0,87,0.00,,,0.00,WeatherTracker,2013-01-05 17:06:00,
2013-01-05 09:11:00,48.2,44.2,30.24,South,174,1.0,0.0,86,0.00,,,0.00,WeatherTracker,2013-01-05 17:11:00,
2013-01-05 09:16:00,48.5,44.5,30.23,SSE,158,1.0,0.0,86,0.00,,,0.00,WeatherTracker,2013-01-05 17:16:00,
2013-01-05 09:21:00,48.8,44.8,30.23,SSE,153,3.0,0.0,86,0.00,,,0.00,WeatherTracker,2013-01-05 17:21:00,
2013-01-05 09:26:00,49.0,44.7,30.23,ESE,121,1.0,0.0,85,0.00,,,0.00,WeatherTracker,2013-01-05 17:26:00,
2013-01-05 09:31:00,49.1,44.5,30.23,ESE,105,3.0,0.0,84,0.00,,,0.00,WeatherTracker,2013-01-05 17:31:00,
2013-01-05 09:36:00,49.0,44.4,30.23,ESE,114,2.0,0.0,84,0.00,,,0.00,WeatherTracker,2013-01-05 17:36:00,
2013-01-05 09:41:00,49.2,44.6,30.23,ENE,78,2.0,0.0,84,0.00,,,0.00,WeatherTracker,2013-01-05 17:41:00,
2013-01-05 09:46:00,49.3,44.7,30.23,ESE,121,3.0,0.0,84,0.00,,,0.00,WeatherTracker,2013-01-05 17:46:00,
2013-01-05 09:51:00,49.3,44.4,30.23,ESE,108,6.0,0.0,83,0.00,,,0.00,WeatherTracker,2013-01-05 17:51:00,
2013-01-05 09:56:00,49.4,44.5,30.22,SSE,153,7.0,0.0,83,0.00,,,0.00,WeatherTracker,2013-01-05 17:56:00,
2013-01-05 10:01:00,49.5,44.2,30.21,East,101,6.0,0.0,82,0.00,,,0.00,WeatherTracker,2013-01-05 18:01:00,
2013-01-05 10:06:00,49.4,44.5,30.21,East,100,9.0,0.0,83,0.00,,,0.00,WeatherTracker,2013-01-05 18:06:00,
2013-01-05 10:11:00,49.2,44.3,30.19,ESE,105,7.0,0.0,83,0.00,,,0.00,WeatherTracker,2013-01-05 18:11:00,
2013-01-05 10:17:00,49.0,44.4,30.19,ESE,105,11.0,0.0,84,0.00,,,0.00,WeatherTracker,2013-01-05 18:17:00,
2013-01-05 10:22:00,48.8,44.5,30.18,East,97,10.0,0.0,85,0.00,,,0.00,WeatherTracker,2013-01-05 18:22:00,
2013-01-05 10:27:00,48.4,44.1,30.18,ENE,65,6.0,0.0,85,0.00,,,0.00,WeatherTracker,2013-01-05 18:27:00,
2013-01-05 10:32:00,48.2,43.9,30.20,ESE,117,4.0,0.0,85,0.00,,,0.00,WeatherTracker,2013-01-05 18:32:00,
2013-01-05 10:37:00,48.5,44.5,30.21,WSW,249,2.0,0.0,86,0.00,,,0.00,WeatherTracker,2013-01-05 18:37:00,
2013-01-05 10:42:00,48.7,44.4,30.21,SW,225,0.0,0.0,85,0.00,,,0.00,WeatherTracker,2013-01-05 18:42:00,
2013-01-05 10:47:00,49.1,44.5,30.21,ESE,114,2.0,0.0,84,0.00,,,0.00,WeatherTracker,2013-01-05 18:47:00,
2013-01-05 10:52:00,49.2,44.6,30.21,East,80,0.0,0.0,84,0.00,,,0.00,WeatherTracker,2013-01-05 18:52:00,
2013-01-05 10:57:00,49.5,44.9,30.21,ESE,121,1.0,0.0,84,0.00,,,0.00,WeatherTracker,2013-01-05 18:57:00,
2013-01-05 11:02:00,49.8,44.8,30.21,ESE,102,3.0,0.0,83,0.00,,,0.00,WeatherTracker,2013-01-05 19:02:00,
2013-01-05 11:07:00,50.0,45.0,30.21,SSE,153,0.0,0.0,83,0.00,,,0.00,WeatherTracker,2013-01-05 19:07:00,
2013-01-05 11:12:00,50.3,45.0,30.21,East,87,4.0,0.0,82,0.00,,,0.00,WeatherTracker,2013-01-05 19:12:00,
2013-01-05 11:17:00,50.3,44.7,30.21,East,84,5.0,0.0,81,0.00,,,0.00,WeatherTracker,2013-01-05 19:17:00,
2013-01-05 11:22:00,50.1,44.8,30.20,East,93,3.0,0.0,82,0.00,,,0.00,WeatherTracker,2013-01-05 19:22:00,
2013-01-05 11:27:00,50.3,45.0,30.20,ENE,76,2.0,0.0,82,0.00,,,0.00,WeatherTracker,2013-01-05 19:27:00,
2013-01-05 11:32:00,50.4,45.1,30.20,East,79,0.0,0.0,82,0.00,,,0.00,WeatherTracker,2013-01-05 19:32:00,
2013-01-05 11:37:00,50.6,45.3,30.20,NE,49,0.0,0.0,82,0.00,,,0.00,WeatherTracker,2013-01-05 19:37:00,
2013-01-05 11:42:00,50.8,45.5,30.19,East,86,0.0,0.0,82,0.00,,,0.00,WeatherTracker,2013-01-05 19:42:00,
2013-01-05 11:47:00,51.2,45.6,30.19,ESE,103,0.0,0.0,81,0.00,,,0.00,WeatherTracker,2013-01-05 19:47:00,
2013-01-05 11:52:00,51.4,45.8,30.18,ESE,103,1.0,0.0,81,0.00,,,0.00,WeatherTracker,2013-01-05 19:52:00,
2013-01-05 11:57:00,51.4,45.8,30.18,ENE,67,2.0,0.0,81,0.00,,,0.00,WeatherTracker,2013-01-05 19:57:00,
2013-01-05 12:02:00,51.4,45.8,30.18,SE,124,2.0,0.0,81,0.00,,,0.00,WeatherTracker,2013-01-05 20:02:00,
2013-01-05 12:07:00,51.5,45.5,30.18,ENE,74,2.0,0.0,80,0.00,,,0.00,WeatherTracker,2013-01-05 20:07:00,
2013-01-05 12:12:00,51.4,45.4,30.17,East,95,1.0,0.0,80,0.00,,,0.00,WeatherTracker,2013-01-05 20:12:00,
2013-01-05 12:17:00,51.4,45.4,30.17,SE,131,2.0,0.0,80,0.00,,,0.00,WeatherTracker,2013-01-05 20:17:00,
2013-01-05 12:22:00,51.3,45.3,30.16,East,91,1.0,0.0,80,0.00,,,0.00,WeatherTracker,2013-01-05 20:22:00,
2013-01-05 12:28:00,51.4,45.4,30.16,SE,133,0.0,0.0,80,0.00,,,0.00,WeatherTracker,2013-01-05 20:28:00,
2013-01-05 12:33:00,51.8,46.2,30.16,South,176,0.0,0.0,81,0.00,,,0.00,WeatherTracker,2013-01-05 20:33:00,
2013-01-05 12:38:00,52.1,45.8,30.16,SW,218,1.0,0.0,79,0.00,,,0.00,WeatherTracker,2013-01-05 20:38:00,
2013-01-05 12:43:00,52.2,45.9,30.16,WSW,240,0.0,0.0,79,0.00,,,0.00,WeatherTracker,2013-01-05 20:43:00,
2013-01-05 12:48:00,52.2,45.9,30.15,WSW,249,0.0,0.0,79,0.00,,,0.00,WeatherTracker,2013-01-05 20:48:00,
2013-01-05 12:53:00,52.3,46.0,30.15,WSW,257,0.0,0.0,79,0.00,,,0.00,WeatherTracker,2013-01-05 20:53:00,
2013-01-05 12:58:00,52.7,46.4,30.15,West,276,0.0,0.0,79,0.00,,,0.00,WeatherTracker,2013-01-05 20:58:00,
2013-01-05 13:03:00,52.8,46.1,30.15,ESE,120,0.0,0.0,78,0.00,,,0.00,WeatherTracker,2013-01-05 21:03:00,
2013-01-05 13:08:00,52.7,46.0,30.14,SE,132,1.0,0.0,78,0.00,,,0.00,WeatherTracker,2013-01-05 21:08:00,
2013-01-05 13:13:00,52.9,45.9,30.14,ESE,115,3.0,0.0,77,0.00,,,0.00,WeatherTracker,2013-01-05 21:13:00,
2013-01-05 13:18:00,53.0,46.0,30.13,East,82,4.0,0.0,77,0.00,,,0.00,WeatherTracker,2013-01-05 21:18:00,
2013-01-05 13:23:00,52.9,45.9,30.13,ENE,77,2.0,0.0,77,0.00,,,0.00,WeatherTracker,2013-01-05 21:23:00,
2013-01-05 13:28:00,52.7,45.7,30.13,SE,127,5.0,0.0,77,0.00,,,0.00,WeatherTracker,2013-01-05 21:28:00,
2013-01-05 13:33:00,52.6,45.9,30.13,ENE,77,1.0,0.0,78,0.00,,,0.00,WeatherTracker,2013-01-05 21:33:00,
2013-01-05 13:38:00,52.6,45.9,30.13,SE,139,2.0,0.0,78,0.00,,,0.00,WeatherTracker,2013-01-05 21:38:00,
2013-01-05 13:43:00,52.6,45.9,30.13,SSE,158,2.0,0.0,78,0.00,,,0.00,WeatherTracker,2013-01-05 21:43:00,
2013-01-05 13:48:00,52.6,45.9,30.13,SE,125,0.0,0.0,78,0.00,,,0.00,WeatherTracker,2013-01-05 21:48:00,
2013-01-05 13:53:00,52.6,45.9,30.13,South,188,1.0,0.0,78,0.00,,,0.00,WeatherTracker,2013-01-05 21:53:00,
2013-01-05 13:58:00,52.7,46.0,30.13,ESE,114,1.0,0.0,78,0.00,,,0.00,WeatherTracker,2013-01-05 21:58:00,
2013-01-05 14:03:00,52.6,45.9,30.13,ENE,71,2.0,0.0,78,0.00,,,0.00,WeatherTracker,2013-01-05 22:03:00,
2013-01-05 14:08:00,52.6,45.9,30.12,ENE,75,3.0,0.0,78,0.00,,,0.00,WeatherTracker,2013-01-05 22:08:00,
2013-01-05 14:13:00,52.6,45.9,30.12,ENE,59,0.0,0.0,78,0.00,,,0.00,WeatherTracker,2013-01-05 22:13:00,
2013-01-05 14:18:00,52.6,45.9,30.12,SSE,159,0.0,0.0,78,0.00,,,0.00,WeatherTracker,2013-01-05 22:18:00,
2013-01-05 14:23:00,52.8,46.1,30.11,ESE,107,1.0,0.0,78,0.00,,,0.00,WeatherTracker,2013-01-05 22:23:00,
2013-01-05 14:29:00,52.9,45.9,30.11,SE,133,3.0,0.0,77,0.00,,,0.00,WeatherTracker,2013-01-05 22:29:00,
2013-01-05 14:34:00,52.9,45.9,30.11,East,100,1.0,0.0,77,0.00,,,0.00,WeatherTracker,2013-01-05 22:34:00,
2013-01-05 14:39:00,52.9,45.9,30.11,ESE,121,2.0,0.0,77,0.00,,,0.00,WeatherTracker,2013-01-05 22:39:00,
2013-01-05 14:44:00,52.9,46.2,30.10,ESE,105,3.0,0.0,78,0.00,,,0.00,WeatherTracker,2013-01-05 22:44:00,
2013-01-05 14:49:00,52.8,46.5,30.10,SE,125,4.0,0.0,79,0.00,,,0.00,WeatherTracker,2013-01-05 22:49:00,
2013-01-05 14:54:00,52.4,46.1,30.10,SE,142,5.0,0.0,79,0.00,,,0.00,WeatherTracker,2013-01-05 22:54:00,
2013-01-05 14:59:00,52.0,46.0,30.10,SE,137,3.0,0.0,80,0.00,,,0.00,WeatherTracker,2013-01-05 22:59:00,
2013-01-05 15:04:00,51.7,46.4,30.10,SE,129,2.0,0.0,82,0.00,,,0.00,WeatherTracker,2013-01-05 23:04:00,
2013-01-05 15:09:00,51.3,46.3,30.10,ESE,121,3.0,0.0,83,0.00,,,0.00,WeatherTracker,2013-01-05 23:09:00,
2013-01-05 15:14:00,51.1,46.4,30.10,ESE,112,6.0,0.0,84,0.00,,,0.00,WeatherTracker,2013-01-05 23:14:00,
2013-01-05 15:19:00,50.9,46.2,30.09,ESE,105,3.0,0.0,84,0.01,,,0.01,WeatherTracker,2013-01-05 23:19:00,
2013-01-05 15:24:00,50.9,46.6,30.10,ESE,108,4.0,0.0,85,0.01,,,0.01,WeatherTracker,2013-01-05 23:24:00,
2013-01-05 15:29:00,50.9,46.6,30.09,ESE,121,2.0,0.0,85,0.01,,,0.01,WeatherTracker,2013-01-05 23:29:00,
2013-01-05 15:34:00,50.9,46.6,30.09,East,80,3.0,0.0,85,0.01,,,0.01,WeatherTracker,2013-01-05 23:34:00,
2013-01-05 15:39:00,51.0,46.7,30.09,ESE,105,0.0,0.0,85,0.02,,,0.02,WeatherTracker,2013-01-05 23:39:00,
2013-01-05 15:44:00,51.0,47.0,30.09,SE,131,0.0,0.0,86,0.03,,,0.03,WeatherTracker,2013-01-05 23:44:00,
2013-01-05 15:49:00,50.9,46.9,30.09,WSW,253,0.0,0.0,86,0.03,,,0.03,WeatherTracker,2013-01-05 23:49:00,
2013-01-05 15:54:00,50.9,46.9,30.09,SSE,155,0.0,0.0,86,0.04,,,0.04,WeatherTracker,2013-01-05 23:54:00,
2013-01-05 15:59:00,50.8,46.8,30.09,SSE,155,0.0,0.0,86,0.04,,,0.04,WeatherTracker,2013-01-05 23:59:00,
2013-01-05 16:04:00,50.8,47.1,30.09,South,170,0.0,0.0,87,0.05,,,0.05,WeatherTracker,2013-01-06 00:04:00,
2013-01-05 16:09:00,50.7,47.0,30.09,WSW,245,2.0,0.0,87,0.05,,,0.05,WeatherTracker,2013-01-06 00:09:00,
2013-01-05 16:14:00,50.6,46.9,30.09,West,269,0.0,0.0,87,0.05,,,0.05,WeatherTracker,2013-01-06 00:14:00,
2013-01-05 16:19:00,50.6,46.9,30.09,West,278,0.0,0.0,87,0.04,,,0.05,WeatherTracker,2013-01-06 00:19:00,
2013-01-05 16:24:00,50.5,46.8,30.09,West,264,0.0,0.0,87,0.04,,,0.05,WeatherTracker,2013-01-06 00:24:00,
2013-01-05 16:29:00,50.6,46.9,30.09,West,269,0.0,0.0,87,0.04,,,0.05,WeatherTracker,2013-01-06 00:29:00,
2013-01-05 16:34:00,50.5,46.8,30.09,WNW,290,0.0,0.0,87,0.04,,,0.05,WeatherTracker,2013-01-06 00:34:00,
2013-01-05 16:39:00,50.5,46.8,30.09,WNW,290,0.0,0.0,87,0.03,,,0.05,WeatherTracker,2013-01-06 00:39:00,
2013-01-05 16:45:00,50.5,46.8,30.09,WNW,292,0.0,0.0,87,0.02,,,0.05,WeatherTracker,2013-01-06 00:45:00,
2013-01-05 16:50:00,50.6,46.9,30.09,WNW,293,0.0,0.0,87,0.02,,,0.05,WeatherTracker,2013-01-06 00:50:00,
2013-01-05 16:55:00,50.6,47.2,30.09,WNW,302,2.0,0.0,88,0.01,,,0.05,WeatherTracker,2013-01-06 00:55:00,
2013-01-05 17:00:00,50.6,47.2,30.09,NW,312,2.0,0.0,88,0.01,,,0.05,WeatherTracker,2013-01-06 01:00:00,
2013-01-05 17:05:00,50.3,47.2,30.09,WNW,299,1.0,0.0,89,0.01,,,0.06,WeatherTracker,2013-01-06 01:05:00,
2013-01-05 17:10:00,50.1,47.0,30.09,WNW,298,0.0,0.0,89,0.01,,,0.06,WeatherTracker,2013-01-06 01:10:00,
2013-01-05 17:15:00,50.1,47.3,30.09,NW,304,0.0,0.0,90,0.01,,,0.06,WeatherTracker,2013-01-06 01:15:00,
2013-01-05 17:20:00,50.0,47.2,30.08,NW,304,0.0,0.0,90,0.01,,,0.06,WeatherTracker,2013-01-06 01:20:00,
2013-01-05 17:25:00,50.0,47.2,30.08,NW,304,0.0,0.0,90,0.02,,,0.07,WeatherTracker,2013-01-06 01:25:00,
2013-01-05 17:30:00,49.9,47.4,30.08,ENE,70,1.0,0.0,91,0.03,,,0.08,WeatherTracker,2013-01-06 01:30:00,
2013-01-05 17:35:00,49.9,47.4,30.08,East,86,1.0,0.0,91,0.03,,,0.08,WeatherTracker,2013-01-06 01:35:00,
2013-01-05 17:40:00,50.0,47.5,30.08,ENE,70,1.0,0.0,91,0.04,,,0.09,WeatherTracker,2013-01-06 01:40:00,
2013-01-05 17:45:00,50.0,47.8,30.07,ESE,108,1.0,0.0,92,0.04,,,0.09,WeatherTracker,2013-01-06 01:45:00,
2013-01-05 17:50:00,50.0,47.5,30.07,ENE,77,1.0,0.0,91,0.04,,,0.09,WeatherTracker,2013-01-06 01:50:00,
2013-01-05 17:55:00,50.0,47.8,30.07,East,95,2.0,0.0,92,0.04,,,0.09,WeatherTracker,2013-01-06 01:55:00,
2013-01-05 18:00:00,50.0,47.8,30.07,East,86,1.0,0.0,92,0.05,,,0.10,WeatherTracker,2013-01-06 02:00:00,
2013-01-05 18:05:00,50.1,47.9,30.07,ENE,66,2.0,0.0,92,0.04,,,0.10,WeatherTracker,2013-01-06 02:05:00,
2013-01-05 18:10:00,50.0,47.8,30.07,NE,43,2.0,0.0,92,0.04,,,0.10,WeatherTracker,2013-01-06 02:10:00,
2013-01-05 18:15:00,49.9,47.7,30.07,NE,56,3.0,0.0,92,0.04,,,0.10,WeatherTracker,2013-01-06 02:15:00,
2013-01-05 18:20:00,49.7,47.5,30.06,ENE,59,1.0,0.0,92,0.05,,,0.11,WeatherTracker,2013-01-06 02:20:00,
2013-01-05 18:25:00,49.5,47.3,30.06,ENE,63,1.0,0.0,92,0.04,,,0.11,WeatherTracker,2013-01-06 02:25:00,
2013-01-05 18:30:00,49.4,47.5,30.06,NNE,20,2.0,0.0,93,0.03,,,0.11,WeatherTracker,2013-01-06 02:30:00,
2013-01-05 18:35:00,49.3,47.4,30.06,NE,43,1.0,0.0,93,0.03,,,0.11,WeatherTracker,2013-01-06 02:35:00,
2013-01-05 18:40:00,49.3,47.4,30.06,NE,47,0.0,0.0,93,0.03,,,0.12,WeatherTracker,2013-01-06 02:40:00,
2013-01-05 18:45:00,49.3,47.4,30.06,WSW,255,0.0,0.0,93,0.05,,,0.14,WeatherTracker,2013-01-06 02:45:00,
2013-01-05 18:50:00,49.4,47.5,30.06,WSW,251,0.0,0.0,93,0.07,,,0.16,WeatherTracker,2013-01-06 02:50:00,
2013-01-05 18:55:00,49.3,47.4,30.06,WSW,251,0.0,0.0,93,0.10,,,0.19,WeatherTracker,2013-01-06 02:55:00,
2013-01-05 19:01:00,49.5,47.6,30.05,SW,219,0.0,0.0,93,0.10,,,0.20,WeatherTracker,2013-01-06 03:01:00,
2013-01-05 19:06:00,49.5,47.6,30.05,East,89,1.0,0.0,93,0.11,,,0.21,WeatherTracker,2013-01-06 03:06:00,
2013-01-05 19:11:00,49.6,47.7,30.05,ENE,77,2.0,0.0,93,0.11,,,0.21,WeatherTracker,2013-01-06 03:11:00,
2013-01-05 19:16:00,49.5,47.6,30.05,ENE,74,1.0,0.0,93,0.11,,,0.21,WeatherTracker,2013-01-06 03:16:00,
2013-01-05 19:21:00,49.5,47.6,30.05,East,90,0.0,0.0,93,0.10,,,0.21,WeatherTracker,2013-01-06 03:21:00,
2013-01-05 19:26:00,49.5,47.6,30.05,East,95,1.0,0.0,93,0.10,,,0.21,WeatherTracker,2013-01-06 03:26:00,
2013-01-05 19:31:00,49.7,48.0,30.06,East,86,3.0,0.0,94,0.11,,,0.22,WeatherTracker,2013-01-06 03:31:00,
2013-01-05 19:36:00,49.7,48.0,30.06,ESE,120,2.0,0.0,94,0.11,,,0.22,WeatherTracker,2013-01-06 03:36:00,
2013-01-05 19:41:00,49.7,47.8,30.06,East,89,0.0,0.0,93,0.10,,,0.22,WeatherTracker,2013-01-06 03:41:00,
2013-01-05 19:46:00,49.6,47.7,30.06,East,101,0.0,0.0,93,0.09,,,0.23,WeatherTracker,2013-01-06 03:46:00,
2013-01-05 19:51:00,49.6,47.9,30.06,SE,126,2.0,0.0,94,0.06,,,0.23,WeatherTracker,2013-01-06 03:51:00,
2013-01-05 19:56:00,49.6,47.9,30.06,ENE,58,2.0,0.0,94,0.04,,,0.23,WeatherTracker,2013-01-06 03:56:00,
2013-01-05 20:01:00,49.5,47.6,30.06,NE,44,4.0,0.0,93,0.03,,,0.23,WeatherTracker,2013-01-06 04:01:00,
2013-01-05 20:06:00,49.5,47.8,30.06,ENE,66,2.0,0.0,94,0.02,,,0.23,WeatherTracker,2013-01-06 04:06:00,
2013-01-05 20:11:00,49.5,47.8,30.06,NE,49,2.0,0.0,94,0.02,,,0.23,WeatherTracker,2013-01-06 04:11:00,
2013-01-05 20:16:00,49.4,47.7,30.06,ENE,70,4.0,0.0,94,0.03,,,0.24,WeatherTracker,2013-01-06 04:16:00,
2013-01-05 20:21:00,49.4,47.7,30.06,SSE,149,0.0,0.0,94,0.04,,,0.25,WeatherTracker,2013-01-06 04:21:00,
2013-01-05 20:26:00,49.5,47.8,30.06,WNW,288,1.0,0.0,94,0.04,,,0.25,WeatherTracker,2013-01-06 04:26:00,
2013-01-05 20:31:00,49.5,47.8,30.06,NE,49,1.0,0.0,94,0.03,,,0.25,WeatherTracker,2013-01-06 04:31:00,
2013-01-05 20:36:00,49.6,47.9,30.06,ENE,76,1.0,0.0,94,0.03,,,0.25,WeatherTracker,2013-01-06 04:36:00,
2013-01-05 20:41:00,49.7,48.0,30.06,East,82,2.0,0.0,94,0.03,,,0.25,WeatherTracker,2013-01-06 04:41:00,
2013-01-05 20:46:00,49.9,48.2,30.05,SE,142,0.0,0.0,94,0.02,,,0.25,WeatherTracker,2013-01-06 04:46:00,
2013-01-05 20:51:00,49.8,48.1,30.06,East,97,2.0,0.0,94,0.02,,,0.25,WeatherTracker,2013-01-06 04:51:00,
2013-01-05 20:57:00,49.9,48.2,30.06,ESE,115,4.0,0.0,94,0.02,,,0.25,WeatherTracker,2013-01-06 04:57:00,
2013-01-05 21:00:00,49.9,48.2,30.06,SE,131,2.0,0.0,94,0.02,,,0.25,WeatherTracker,2013-01-06 05:00:00,
2013-01-05 21:05:00,50.0,48.3,30.06,ESE,115,4.0,0.0,94,0.02,,,0.25,WeatherTracker,2013-01-06 05:05:00,
2013-01-05 21:06:00,50.0,48.3,30.06,SE,135,2.0,0.0,94,0.02,,,0.25,WeatherTracker,2013-01-06 05:06:00,
2013-01-05 21:11:00,50.1,48.4,30.05,East,96,2.0,0.0,94,0.02,,,0.25,WeatherTracker,2013-01-06 05:11:00,
2013-01-05 21:16:00,50.0,48.3,30.06,ESE,120,3.0,0.0,94,0.01,,,0.25,WeatherTracker,2013-01-06 05:16:00,
2013-01-05 21:21:00,50.0,48.3,30.05,ESE,107,4.0,0.0,94,0.00,,,0.25,WeatherTracker,2013-01-06 05:21:00,
2013-01-05 21:26:00,50.0,48.3,30.05,South,181,1.0,0.0,94,0.00,,,0.25,WeatherTracker,2013-01-06 05:26:00,
2013-01-05 21:31:00,50.0,48.3,30.06,ESE,113,0.0,0.0,94,0.00,,,0.25,WeatherTracker,2013-01-06 05:31:00,
2013-01-05 21:36:00,50.0,48.3,30.06,East,86,0.0,0.0,94,0.00,,,0.25,WeatherTracker,2013-01-06 05:36:00,
2013-01-05 21:41:00,50.1,48.4,30.06,East,100,0.0,0.0,94,0.01,,,0.26,WeatherTracker,2013-01-06 05:41:00,
2013-01-05 21:46:00,50.1,48.4,30.06,South,172,2.0,0.0,94,0.01,,,0.26,WeatherTracker,2013-01-06 05:46:00,
2013-01-05 21:51:00,50.0,48.3,30.05,SSW,212,0.0,0.0,94,0.01,,,0.26,WeatherTracker,2013-01-06 05:51:00,
2013-01-05 21:56:00,50.0,48.3,30.05,SSE,152,0.0,0.0,94,0.01,,,0.26,WeatherTracker,2013-01-06 05:56:00,
2013-01-05 22:01:00,50.3,48.6,30.05,SSE,167,0.0,0.0,94,0.01,,,0.26,WeatherTracker,2013-01-06 06:01:00,
2013-01-05 22:06:00,50.2,48.3,30.05,West,263,2.0,0.0,93,0.01,,,0.26,WeatherTracker,2013-01-06 06:06:00,
2013-01-05 22:11:00,50.0,48.1,30.04,WSW,238,0.0,0.0,93,0.01,,,0.26,WeatherTracker,2013-01-06 06:11:00,
2013-01-05 22:16:00,50.0,48.1,30.05,SW,223,3.0,0.0,93,0.01,,,0.26,WeatherTracker,2013-01-06 06:16:00,
2013-01-05 22:21:00,49.9,48.0,30.05,SSE,153,0.0,0.0,93,0.01,,,0.26,WeatherTracker,2013-01-06 06:21:00,
2013-01-05 22:26:00,49.9,48.0,30.05,SSE,148,1.0,0.0,93,0.01,,,0.26,WeatherTracker,2013-01-06 06:26:00,
2013-01-05 22:31:00,49.9,47.7,30.05,South,186,0.0,0.0,92,0.01,,,0.26,WeatherTracker,2013-01-06 06:31:00,
2013-01-05 22:36:00,50.0,47.8,30.05,SSE,150,3.0,0.0,92,0.01,,,0.26,WeatherTracker,2013-01-06 06:36:00,
2013-01-05 22:41:00,50.1,47.9,30.05,SSW,202,1.0,0.0,92,0.00,,,0.26,WeatherTracker,2013-01-06 06:41:00,
2013-01-05 22:46:00,50.2,48.0,30.05,SSW,202,1.0,0.0,92,0.00,,,0.26,WeatherTracker,2013-01-06 06:46:00,
2013-01-05 22:52:00,50.2,47.7,30.05,South,181,0.0,0.0,91,0.00,,,0.26,WeatherTracker,2013-01-06 06:52:00,
2013-01-05 22:57:00,50.3,47.8,30.05,SSE,166,0.0,0.0,91,0.00,,,0.26,WeatherTracker,2013-01-06 06:57:00,
2013-01-05 23:02:00,50.2,47.4,30.06,South,179,1.0,0.0,90,0.00,,,0.26,WeatherTracker,2013-01-06 07:02:00,
2013-01-05 23:07:00,50.1,47.3,30.06,SSE,167,1.0,0.0,90,0.00,,,0.26,WeatherTracker,2013-01-06 07:07:00,
2013-01-05 23:12:00,50.1,47.3,30.05,SE,145,1.0,0.0,90,0.00,,,0.26,WeatherTracker,2013-01-06 07:12:00,
2013-01-05 23:17:00,50.0,46.9,30.05,SSE,163,1.0,0.0,89,0.00,,,0.26,WeatherTracker,2013-01-06 07:17:00,
2013-01-05 23:22:00,50.0,46.9,30.05,SSW,211,1.0,0.0,89,0.00,,,0.26,WeatherTracker,2013-01-06 07:22:00,
2013-01-05 23:27:00,50.0,46.9,30.05,South,190,0.0,0.0,89,0.00,,,0.26,WeatherTracker,2013-01-06 07:27:00,
2013-01-05 23:32:00,49.9,46.8,30.05,SE,133,0.0,0.0,89,0.00,,,0.26,WeatherTracker,2013-01-06 07:32:00,
2013-01-05 23:37:00,49.9,46.8,30.04,SE,133,0.0,0.0,89,0.00,,,0.26,WeatherTracker,2013-01-06 07:37:00,
2013-01-05 23:42:00,50.0,46.9,30.04,ENE,77,1.0,0.0,89,0.00,,,0.26,WeatherTracker,2013-01-06 07:42:00,
2013-01-05 23:47:00,50.0,46.9,30.04,ENE,77,1.0,0.0,89,0.00,,,0.26,WeatherTracker,2013-01-06 07:47:00,
2013-01-05 23:52:00,50.0,46.9,30.04,East,89,3.0,0.0,89,0.00,,,0.26,WeatherTracker,2013-01-06 07:52:00,
2013-01-05 23:57:00,50.1,47.0,30.04,East,81,3.0,0.0,89,0.00,,,0.26,WeatherTracker,2013-01-06 07:57:00,